sensor_id;sensor_type;location;lat;lon;timestamp;pressure;altitude;pressure_sealevel;temperature;humidity
21706;BME280;11014;53.076;18.208;2023-01-30T00:02:03;100772.38;;;4.67;73.41
21706;BME280;11014;53.076;18.208;2023-01-30T00:04:31;100756.56;;;4.81;73.04
21706;BME280;11014;53.076;18.208;2023-01-30T00:07:00;100752.81;;;4.75;73.17
21706;BME280;11014;53.076;18.208;2023-01-30T00:09:28;100748.72;;;4.72;73.41
21706;BME280;11014;53.076;18.208;2023-01-30T00:11:57;100753.00;;;4.95;73.23
21706;BME280;11014;53.076;18.208;2023-01-30T00:14:26;100744.63;;;4.76;73.53
21706;BME280;11014;53.076;18.208;2023-01-30T00:16:55;100742.84;;;4.62;73.38
21706;BME280;11014;53.076;18.208;2023-01-30T00:19:23;100743.91;;;4.47;73.92
21706;BME280;11014;53.076;18.208;2023-01-30T00:21:52;100744.25;;;4.58;73.60
21706;BME280;11014;53.076;18.208;2023-01-30T00:24:20;100726.09;;;4.26;74.89
21706;BME280;11014;53.076;18.208;2023-01-30T00:26:54;100727.06;;;4.40;75.12
21706;BME280;11014;53.076;18.208;2023-01-30T00:29:22;100726.31;;;4.46;74.75
21706;BME280;11014;53.076;18.208;2023-01-30T00:31:51;100726.38;;;4.31;74.47
21706;BME280;11014;53.076;18.208;2023-01-30T00:34:25;100710.88;;;4.77;74.40
21706;BME280;11014;53.076;18.208;2023-01-30T00:36:54;100702.06;;;4.34;74.75
21706;BME280;11014;53.076;18.208;2023-01-30T00:39:35;100713.94;;;4.38;74.80
21706;BME280;11014;53.076;18.208;2023-01-30T00:42:04;100692.50;;;4.61;74.31
21706;BME280;11014;53.076;18.208;2023-01-30T00:44:51;100696.50;;;4.50;74.48
21706;BME280;11014;53.076;18.208;2023-01-30T00:47:38;100689.84;;;4.40;74.38
21706;BME280;11014;53.076;18.208;2023-01-30T00:50:07;100689.41;;;4.57;74.21
21706;BME280;11014;53.076;18.208;2023-01-30T00:55:54;100675.38;;;3.92;75.02
21706;BME280;11014;53.076;18.208;2023-01-30T00:58:24;100683.53;;;3.90;75.38
21706;BME280;11014;53.076;18.208;2023-01-30T01:00:53;100668.28;;;4.13;75.87
21706;BME280;11014;53.076;18.208;2023-01-30T01:03:25;100664.16;;;4.11;75.24
21706;BME280;11014;53.076;18.208;2023-01-30T01:05:53;100664.59;;;4.50;74.47
21706;BME280;11014;53.076;18.208;2023-01-30T01:08:22;100654.19;;;4.34;74.23
21706;BME280;11014;53.076;18.208;2023-01-30T01:10:50;100663.53;;;4.30;73.81
21706;BME280;11014;53.076;18.208;2023-01-30T01:13:19;100633.34;;;4.38;74.19
21706;BME280;11014;53.076;18.208;2023-01-30T01:15:49;100640.72;;;4.00;74.23
21706;BME280;11014;53.076;18.208;2023-01-30T01:18:17;100630.31;;;4.19;74.38
21706;BME280;11014;53.076;18.208;2023-01-30T01:20:46;100615.69;;;4.30;74.85
21706;BME280;11014;53.076;18.208;2023-01-30T01:23:15;100615.44;;;4.04;74.71
21706;BME280;11014;53.076;18.208;2023-01-30T01:25:43;100604.75;;;4.40;74.23
21706;BME280;11014;53.076;18.208;2023-01-30T01:28:12;100603.91;;;4.39;74.06
21706;BME280;11014;53.076;18.208;2023-01-30T01:30:44;100611.50;;;4.21;74.49
21706;BME280;11014;53.076;18.208;2023-01-30T01:33:13;100599.97;;;4.14;74.32
21706;BME280;11014;53.076;18.208;2023-01-30T01:35:41;100593.59;;;4.30;74.65
21706;BME280;11014;53.076;18.208;2023-01-30T01:38:10;100578.63;;;4.07;74.72
21706;BME280;11014;53.076;18.208;2023-01-30T01:40:44;100577.59;;;4.23;74.56
21706;BME280;11014;53.076;18.208;2023-01-30T01:43:57;100573.34;;;4.56;73.51
21706;BME280;11014;53.076;18.208;2023-01-30T01:46:55;100552.50;;;4.53;73.50
21706;BME280;11014;53.076;18.208;2023-01-30T01:49:32;100539.16;;;4.26;74.51
21706;BME280;11014;53.076;18.208;2023-01-30T01:52:12;100542.50;;;3.92;75.47
21706;BME280;11014;53.076;18.208;2023-01-30T01:54:47;100513.44;;;4.33;75.74
21706;BME280;11014;53.076;18.208;2023-01-30T02:00:15;100492.44;;;4.16;76.11
21706;BME280;11014;53.076;18.208;2023-01-30T02:02:48;100488.00;;;4.24;75.73
21706;BME280;11014;53.076;18.208;2023-01-30T02:05:19;100489.22;;;4.00;75.57
21706;BME280;11014;53.076;18.208;2023-01-30T02:08:21;100476.22;;;3.84;76.58
21706;BME280;11014;53.076;18.208;2023-01-30T02:13:26;100441.34;;;4.21;76.28
21706;BME280;11014;53.076;18.208;2023-01-30T02:16:00;100433.34;;;4.42;76.10
21706;BME280;11014;53.076;18.208;2023-01-30T02:18:30;100433.66;;;4.26;75.84
21706;BME280;11014;53.076;18.208;2023-01-30T02:27:13;100419.97;;;4.01;75.71
21706;BME280;11014;53.076;18.208;2023-01-30T02:33:20;100402.59;;;4.33;74.96
21706;BME280;11014;53.076;18.208;2023-01-30T02:36:04;100388.16;;;4.14;74.64
21706;BME280;11014;53.076;18.208;2023-01-30T02:39:15;100389.91;;;4.01;75.35
21706;BME280;11014;53.076;18.208;2023-01-30T02:44:26;100379.34;;;4.48;74.07
21706;BME280;11014;53.076;18.208;2023-01-30T02:47:29;100364.66;;;4.52;73.54
21706;BME280;11014;53.076;18.208;2023-01-30T02:50:22;100352.63;;;4.22;73.26
21706;BME280;11014;53.076;18.208;2023-01-30T02:52:53;100367.72;;;4.15;73.98
21706;BME280;11014;53.076;18.208;2023-01-30T02:55:25;100358.78;;;4.29;73.87
21706;BME280;11014;53.076;18.208;2023-01-30T02:57:54;100352.41;;;4.58;73.08
21706;BME280;11014;53.076;18.208;2023-01-30T03:12:17;100320.44;;;4.51;71.21
21706;BME280;11014;53.076;18.208;2023-01-30T03:14:54;100319.16;;;4.34;70.68
21706;BME280;11014;53.076;18.208;2023-01-30T03:17:25;100311.75;;;4.30;71.08
21706;BME280;11014;53.076;18.208;2023-01-30T03:19:55;100305.22;;;4.32;71.36
21706;BME280;11014;53.076;18.208;2023-01-30T03:22:24;100322.00;;;4.33;71.44
21706;BME280;11014;53.076;18.208;2023-01-30T03:24:53;100339.03;;;4.10;71.89
21706;BME280;11014;53.076;18.208;2023-01-30T03:27:22;100317.91;;;4.30;70.93
21706;BME280;11014;53.076;18.208;2023-01-30T03:29:50;100297.25;;;4.32;70.87
21706;BME280;11014;53.076;18.208;2023-01-30T03:32:19;100299.06;;;4.25;70.88
21706;BME280;11014;53.076;18.208;2023-01-30T03:34:47;100313.06;;;4.47;70.36
21706;BME280;11014;53.076;18.208;2023-01-30T03:37:16;100299.06;;;4.25;70.59
21706;BME280;11014;53.076;18.208;2023-01-30T03:39:45;100287.66;;;4.38;70.56
21706;BME280;11014;53.076;18.208;2023-01-30T03:42:15;100298.72;;;4.41;70.33
21706;BME280;11014;53.076;18.208;2023-01-30T03:44:43;100286.22;;;4.35;70.40
21706;BME280;11014;53.076;18.208;2023-01-30T03:47:13;100285.28;;;4.56;69.85
21706;BME280;11014;53.076;18.208;2023-01-30T03:49:42;100272.53;;;4.38;69.97
21706;BME280;11014;53.076;18.208;2023-01-30T03:52:11;100274.56;;;4.36;69.14
21706;BME280;11014;53.076;18.208;2023-01-30T03:54:39;100267.72;;;4.61;69.02
21706;BME280;11014;53.076;18.208;2023-01-30T03:57:11;100240.00;;;4.36;70.07
21706;BME280;11014;53.076;18.208;2023-01-30T03:59:40;100244.34;;;4.50;69.45
21706;BME280;11014;53.076;18.208;2023-01-30T04:02:11;100267.59;;;4.35;69.63
21706;BME280;11014;53.076;18.208;2023-01-30T04:04:42;100246.34;;;4.35;69.83
21706;BME280;11014;53.076;18.208;2023-01-30T04:07:12;100241.34;;;4.19;70.94
21706;BME280;11014;53.076;18.208;2023-01-30T04:09:41;100234.69;;;4.43;70.97
21706;BME280;11014;53.076;18.208;2023-01-30T04:12:12;100229.66;;;4.61;70.92
21706;BME280;11014;53.076;18.208;2023-01-30T04:14:50;100234.50;;;4.44;72.41
21706;BME280;11014;53.076;18.208;2023-01-30T04:17:44;100217.75;;;4.57;72.61
21706;BME280;11014;53.076;18.208;2023-01-30T04:20:23;100206.72;;;4.53;72.10
21706;BME280;11014;53.076;18.208;2023-01-30T04:22:55;100201.22;;;4.07;73.00
21706;BME280;11014;53.076;18.208;2023-01-30T04:25:25;100196.16;;;4.19;73.62
21706;BME280;11014;53.076;18.208;2023-01-30T04:27:54;100182.13;;;4.38;73.62
21706;BME280;11014;53.076;18.208;2023-01-30T04:30:28;100170.47;;;3.79;77.69
21706;BME280;11014;53.076;18.208;2023-01-30T04:33:15;100154.13;;;3.82;77.48
21706;BME280;11014;53.076;18.208;2023-01-30T04:35:57;100149.00;;;3.80;77.08
21706;BME280;11014;53.076;18.208;2023-01-30T04:38:29;100149.47;;;3.97;76.71
21706;BME280;11014;53.076;18.208;2023-01-30T04:41:00;100183.47;;;3.67;76.20
21706;BME280;11014;53.076;18.208;2023-01-30T04:43:32;100143.75;;;3.52;77.05
21706;BME280;11014;53.076;18.208;2023-01-30T04:46:21;100146.44;;;3.93;76.63
21706;BME280;11014;53.076;18.208;2023-01-30T04:48:53;100147.16;;;3.81;76.22
21706;BME280;11014;53.076;18.208;2023-01-30T04:51:27;100128.03;;;3.98;75.72
21706;BME280;11014;53.076;18.208;2023-01-30T04:53:58;100139.41;;;3.86;74.98
21706;BME280;11014;53.076;18.208;2023-01-30T04:56:26;100130.47;;;3.52;75.52
21706;BME280;11014;53.076;18.208;2023-01-30T04:58:55;100109.59;;;3.84;75.39
21706;BME280;11014;53.076;18.208;2023-01-30T05:01:33;100112.28;;;3.97;75.01
21706;BME280;11014;53.076;18.208;2023-01-30T05:04:04;100105.16;;;4.10;75.13
21706;BME280;11014;53.076;18.208;2023-01-30T05:06:34;100097.78;;;3.45;75.59
21706;BME280;11014;53.076;18.208;2023-01-30T05:09:03;100116.56;;;3.10;77.24
21706;BME280;11014;53.076;18.208;2023-01-30T05:11:33;100105.13;;;3.09;78.69
21706;BME280;11014;53.076;18.208;2023-01-30T05:14:10;100093.47;;;3.38;79.61
21706;BME280;11014;53.076;18.208;2023-01-30T05:17:05;100068.97;;;3.42;80.55
21706;BME280;11014;53.076;18.208;2023-01-30T05:19:34;100056.41;;;3.23;80.34
21706;BME280;11014;53.076;18.208;2023-01-30T05:22:02;100066.38;;;3.55;80.12
21706;BME280;11014;53.076;18.208;2023-01-30T05:24:31;100059.31;;;3.28;79.92
21706;BME280;11014;53.076;18.208;2023-01-30T05:27:24;100064.88;;;2.99;80.06
21706;BME280;11014;53.076;18.208;2023-01-30T05:29:53;100047.63;;;3.16;81.10
21706;BME280;11014;53.076;18.208;2023-01-30T05:32:21;100037.22;;;3.21;81.21
21706;BME280;11014;53.076;18.208;2023-01-30T05:34:50;100044.03;;;2.96;81.42
21706;BME280;11014;53.076;18.208;2023-01-30T05:37:21;100059.22;;;3.09;81.73
21706;BME280;11014;53.076;18.208;2023-01-30T05:39:51;100025.53;;;3.09;82.39
21706;BME280;11014;53.076;18.208;2023-01-30T05:42:20;100021.25;;;3.08;82.93
21706;BME280;11014;53.076;18.208;2023-01-30T05:44:49;100009.25;;;3.25;83.01
21706;BME280;11014;53.076;18.208;2023-01-30T05:47:20;100003.16;;;3.31;83.04
21706;BME280;11014;53.076;18.208;2023-01-30T05:49:49;100018.22;;;3.11;82.67
21706;BME280;11014;53.076;18.208;2023-01-30T05:55:02;100002.34;;;3.24;83.04
21706;BME280;11014;53.076;18.208;2023-01-30T05:57:34;99998.25;;;3.22;83.13
21706;BME280;11014;53.076;18.208;2023-01-30T06:00:05;100006.44;;;3.33;82.76
21706;BME280;11014;53.076;18.208;2023-01-30T06:02:41;99998.31;;;3.41;82.14
21706;BME280;11014;53.076;18.208;2023-01-30T06:05:10;99996.28;;;3.43;81.70
21706;BME280;11014;53.076;18.208;2023-01-30T06:07:39;99990.94;;;3.30;81.74
21706;BME280;11014;53.076;18.208;2023-01-30T06:10:37;99993.34;;;3.25;81.89
21706;BME280;11014;53.076;18.208;2023-01-30T06:13:05;99997.91;;;3.44;81.83
21706;BME280;11014;53.076;18.208;2023-01-30T06:15:34;99997.03;;;3.24;81.39
21706;BME280;11014;53.076;18.208;2023-01-30T06:18:06;99991.97;;;3.42;81.13
21706;BME280;11014;53.076;18.208;2023-01-30T06:20:38;99989.25;;;3.16;80.92
21706;BME280;11014;53.076;18.208;2023-01-30T06:23:12;99990.78;;;3.58;80.84
21706;BME280;11014;53.076;18.208;2023-01-30T06:25:48;99973.78;;;3.39;80.62
21706;BME280;11014;53.076;18.208;2023-01-30T06:28:26;99983.88;;;3.03;80.31
21706;BME280;11014;53.076;18.208;2023-01-30T06:31:01;99959.03;;;3.17;80.72
21706;BME280;11014;53.076;18.208;2023-01-30T06:33:29;99957.06;;;3.45;80.75
21706;BME280;11014;53.076;18.208;2023-01-30T06:35:58;99952.84;;;2.97;80.61
21706;BME280;11014;53.076;18.208;2023-01-30T06:38:27;99945.00;;;3.36;80.20
21706;BME280;11014;53.076;18.208;2023-01-30T06:40:56;99939.94;;;3.41;79.89
21706;BME280;11014;53.076;18.208;2023-01-30T06:43:27;99961.28;;;3.14;79.73
21706;BME280;11014;53.076;18.208;2023-01-30T06:46:19;99945.56;;;3.25;80.01
21706;BME280;11014;53.076;18.208;2023-01-30T06:48:56;99940.53;;;3.43;79.52
21706;BME280;11014;53.076;18.208;2023-01-30T06:51:37;99942.72;;;3.33;79.58
21706;BME280;11014;53.076;18.208;2023-01-30T06:54:13;99936.63;;;3.39;80.28
21706;BME280;11014;53.076;18.208;2023-01-30T06:56:42;99935.88;;;3.72;79.24
21706;BME280;11014;53.076;18.208;2023-01-30T06:59:12;99942.03;;;3.79;79.03
21706;BME280;11014;53.076;18.208;2023-01-30T07:01:41;99938.69;;;3.37;80.58
21706;BME280;11014;53.076;18.208;2023-01-30T07:04:12;99933.00;;;3.53;83.14
21706;BME280;11014;53.076;18.208;2023-01-30T07:06:41;99914.63;;;3.58;83.02
21706;BME280;11014;53.076;18.208;2023-01-30T07:09:09;99918.72;;;3.54;83.37
21706;BME280;11014;53.076;18.208;2023-01-30T07:11:39;99916.44;;;3.38;83.95
21706;BME280;11014;53.076;18.208;2023-01-30T07:14:10;99907.81;;;3.23;84.51
21706;BME280;11014;53.076;18.208;2023-01-30T07:16:39;99900.22;;;3.07;85.38
21706;BME280;11014;53.076;18.208;2023-01-30T07:19:08;99887.19;;;3.25;85.48
21706;BME280;11014;53.076;18.208;2023-01-30T07:21:36;99890.09;;;3.30;85.75
21706;BME280;11014;53.076;18.208;2023-01-30T07:24:05;99888.44;;;3.42;85.21
21706;BME280;11014;53.076;18.208;2023-01-30T07:26:34;99893.75;;;3.29;85.32
21706;BME280;11014;53.076;18.208;2023-01-30T07:29:03;99879.50;;;3.56;84.65
21706;BME280;11014;53.076;18.208;2023-01-30T07:31:32;99882.75;;;3.52;84.57
21706;BME280;11014;53.076;18.208;2023-01-30T07:34:00;99887.03;;;3.46;84.47
21706;BME280;11014;53.076;18.208;2023-01-30T07:36:31;99875.81;;;3.57;84.34
21706;BME280;11014;53.076;18.208;2023-01-30T07:39:04;99864.78;;;3.67;83.76
21706;BME280;11014;53.076;18.208;2023-01-30T07:41:38;99865.19;;;3.57;83.84
21706;BME280;11014;53.076;18.208;2023-01-30T07:44:13;99861.94;;;3.69;83.47
21706;BME280;11014;53.076;18.208;2023-01-30T07:46:42;99863.97;;;3.60;83.73
21706;BME280;11014;53.076;18.208;2023-01-30T07:49:10;99867.22;;;3.55;83.86
21706;BME280;11014;53.076;18.208;2023-01-30T07:51:39;99858.84;;;3.58;83.83
21706;BME280;11014;53.076;18.208;2023-01-30T07:54:07;99860.69;;;3.58;83.58
21706;BME280;11014;53.076;18.208;2023-01-30T07:56:44;99882.34;;;3.48;83.90
21706;BME280;11014;53.076;18.208;2023-01-30T07:59:12;99848.44;;;3.44;84.54
21706;BME280;11014;53.076;18.208;2023-01-30T08:01:48;99844.78;;;3.51;84.42
21706;BME280;11014;53.076;18.208;2023-01-30T08:04:17;99845.16;;;3.62;84.10
21706;BME280;11014;53.076;18.208;2023-01-30T08:06:46;99835.34;;;3.55;84.24
21706;BME280;11014;53.076;18.208;2023-01-30T08:09:14;99849.66;;;3.48;84.59
21706;BME280;11014;53.076;18.208;2023-01-30T08:11:42;99839.25;;;3.59;84.35
21706;BME280;11014;53.076;18.208;2023-01-30T08:14:11;99832.28;;;3.72;84.03
21706;BME280;11014;53.076;18.208;2023-01-30T08:16:39;99831.50;;;3.65;84.00
21706;BME280;11014;53.076;18.208;2023-01-30T08:19:08;99829.22;;;3.75;83.78
21706;BME280;11014;53.076;18.208;2023-01-30T08:21:37;99830.06;;;3.69;83.87
21706;BME280;11014;53.076;18.208;2023-01-30T08:24:05;99827.19;;;3.50;84.59
21706;BME280;11014;53.076;18.208;2023-01-30T08:26:34;99818.63;;;3.62;84.31
21706;BME280;11014;53.076;18.208;2023-01-30T08:29:03;99816.19;;;3.60;84.57
21706;BME280;11014;53.076;18.208;2023-01-30T08:31:32;99821.06;;;3.70;84.28
21706;BME280;11014;53.076;18.208;2023-01-30T08:34:16;99812.50;;;3.74;83.86
21706;BME280;11014;53.076;18.208;2023-01-30T08:36:47;99811.69;;;3.74;84.08
21706;BME280;11014;53.076;18.208;2023-01-30T08:39:17;99811.25;;;3.50;84.33
21706;BME280;11014;53.076;18.208;2023-01-30T08:41:47;99825.56;;;3.76;84.07
21706;BME280;11014;53.076;18.208;2023-01-30T08:44:15;99805.75;;;3.58;84.64
21706;BME280;11014;53.076;18.208;2023-01-30T08:46:44;99817.63;;;3.49;84.87
21706;BME280;11014;53.076;18.208;2023-01-30T08:49:12;99822.50;;;3.52;84.57
21706;BME280;11014;53.076;18.208;2023-01-30T08:51:41;99816.56;;;3.83;84.55
21706;BME280;11014;53.076;18.208;2023-01-30T08:54:12;99809.00;;;3.87;84.13
21706;BME280;11014;53.076;18.208;2023-01-30T08:56:40;99810.00;;;3.86;83.86
21706;BME280;11014;53.076;18.208;2023-01-30T08:59:11;99803.50;;;3.82;84.04
21706;BME280;11014;53.076;18.208;2023-01-30T09:01:39;99813.69;;;3.72;83.85
21706;BME280;11014;53.076;18.208;2023-01-30T09:04:11;99818.59;;;4.01;83.63
21706;BME280;11014;53.076;18.208;2023-01-30T09:06:45;99812.41;;;4.13;83.39
21706;BME280;11014;53.076;18.208;2023-01-30T09:09:16;99808.16;;;4.06;83.10
21706;BME280;11014;53.076;18.208;2023-01-30T09:11:46;99814.06;;;4.08;83.21
21706;BME280;11014;53.076;18.208;2023-01-30T09:14:37;99816.91;;;4.13;83.27
21706;BME280;11014;53.076;18.208;2023-01-30T09:17:06;99810.00;;;3.99;83.61
21706;BME280;11014;53.076;18.208;2023-01-30T09:19:34;99814.88;;;4.02;83.36
21706;BME280;11014;53.076;18.208;2023-01-30T09:22:05;99826.78;;;3.86;84.02
21706;BME280;11014;53.076;18.208;2023-01-30T09:24:37;99809.97;;;4.12;84.08
21706;BME280;11014;53.076;18.208;2023-01-30T09:27:05;99810.75;;;4.19;83.50
21706;BME280;11014;53.076;18.208;2023-01-30T09:29:34;99800.16;;;4.12;83.73
21706;BME280;11014;53.076;18.208;2023-01-30T09:32:03;99800.19;;;4.06;83.81
21706;BME280;11014;53.076;18.208;2023-01-30T09:34:31;99797.59;;;4.37;83.30
21706;BME280;11014;53.076;18.208;2023-01-30T09:37:00;99803.78;;;4.31;83.64
21706;BME280;11014;53.076;18.208;2023-01-30T09:39:31;99798.47;;;4.31;83.19
21706;BME280;11014;53.076;18.208;2023-01-30T09:45:13;99779.88;;;4.31;83.68
21706;BME280;11014;53.076;18.208;2023-01-30T09:48:06;99778.88;;;4.19;83.82
21706;BME280;11014;53.076;18.208;2023-01-30T09:51:04;99768.09;;;4.58;83.69
21706;BME280;11014;53.076;18.208;2023-01-30T09:56:43;99768.41;;;4.75;82.89
21706;BME280;11014;53.076;18.208;2023-01-30T09:59:27;99768.44;;;4.68;82.75
21706;BME280;11014;53.076;18.208;2023-01-30T10:11:04;99759.38;;;4.76;82.43
21706;BME280;11014;53.076;18.208;2023-01-30T10:19:35;99743.38;;;4.83;82.83
21706;BME280;11014;53.076;18.208;2023-01-30T10:28:24;99728.34;;;4.95;83.42
21706;BME280;11014;53.076;18.208;2023-01-30T10:31:10;99729.28;;;5.07;83.35
21706;BME280;11014;53.076;18.208;2023-01-30T10:36:39;99728.16;;;5.21;82.89
21706;BME280;11014;53.076;18.208;2023-01-30T10:39:27;99729.41;;;5.43;82.35
21706;BME280;11014;53.076;18.208;2023-01-30T10:42:12;99723.38;;;5.54;81.87
21706;BME280;11014;53.076;18.208;2023-01-30T10:44:43;99728.41;;;5.62;81.58
21706;BME280;11014;53.076;18.208;2023-01-30T10:47:26;99721.75;;;5.71;80.97
21706;BME280;11014;53.076;18.208;2023-01-30T10:51:04;99724.69;;;5.63;80.45
21706;BME280;11014;53.076;18.208;2023-01-30T10:53:42;99726.19;;;5.77;80.56
21706;BME280;11014;53.076;18.208;2023-01-30T10:56:17;99713.03;;;5.82;80.05
21706;BME280;11014;53.076;18.208;2023-01-30T10:58:53;99716.81;;;5.93;80.08
21706;BME280;11014;53.076;18.208;2023-01-30T11:01:24;99712.56;;;5.92;80.21
21706;BME280;11014;53.076;18.208;2023-01-30T11:04:25;99701.72;;;6.05;79.74
21706;BME280;11014;53.076;18.208;2023-01-30T11:07:03;99708.50;;;5.89;80.09
21706;BME280;11014;53.076;18.208;2023-01-30T11:09:43;99708.19;;;5.97;79.86
21706;BME280;11014;53.076;18.208;2023-01-30T11:12:13;99699.31;;;6.04;79.54
21706;BME280;11014;53.076;18.208;2023-01-30T11:14:55;99691.78;;;6.12;79.67
21706;BME280;11014;53.076;18.208;2023-01-30T11:17:40;99684.81;;;6.29;79.50
21706;BME280;11014;53.076;18.208;2023-01-30T11:20:21;99679.72;;;6.28;79.02
21706;BME280;11014;53.076;18.208;2023-01-30T11:23:04;99690.19;;;6.41;78.58
21706;BME280;11014;53.076;18.208;2023-01-30T11:25:47;99685.94;;;6.22;78.01
21706;BME280;11014;53.076;18.208;2023-01-30T11:28:27;99701.31;;;6.38;78.23
21706;BME280;11014;53.076;18.208;2023-01-30T11:31:04;99697.63;;;6.39;77.82
21706;BME280;11014;53.076;18.208;2023-01-30T11:33:35;99707.84;;;6.42;77.72
21706;BME280;11014;53.076;18.208;2023-01-30T11:36:21;99674.25;;;6.64;77.70
21706;BME280;11014;53.076;18.208;2023-01-30T11:39:02;99678.25;;;6.73;77.42
21706;BME280;11014;53.076;18.208;2023-01-30T11:41:35;99672.00;;;6.79;77.31
21706;BME280;11014;53.076;18.208;2023-01-30T11:44:13;99704.84;;;6.91;76.64
21706;BME280;11014;53.076;18.208;2023-01-30T11:46:48;99676.69;;;7.18;76.51
21706;BME280;11014;53.076;18.208;2023-01-30T11:49:20;99673.47;;;7.40;75.52
21706;BME280;11014;53.076;18.208;2023-01-30T11:52:11;99681.09;;;7.71;75.05
21706;BME280;11014;53.076;18.208;2023-01-30T11:54:47;99672.03;;;7.72;74.43
21706;BME280;11014;53.076;18.208;2023-01-30T11:57:20;99658.94;;;7.59;74.47
21706;BME280;11014;53.076;18.208;2023-01-30T12:00:02;99663.81;;;7.27;74.66
21706;BME280;11014;53.076;18.208;2023-01-30T12:02:37;99658.38;;;7.45;74.68
21706;BME280;11014;53.076;18.208;2023-01-30T12:07:51;99650.81;;;7.54;74.43
21706;BME280;11014;53.076;18.208;2023-01-30T12:13:03;99650.44;;;7.39;74.69
21706;BME280;11014;53.076;18.208;2023-01-30T12:15:38;99634.06;;;7.35;74.57
21706;BME280;11014;53.076;18.208;2023-01-30T12:18:22;99641.28;;;7.11;74.50
21706;BME280;11014;53.076;18.208;2023-01-30T12:26:19;99635.50;;;7.26;74.94
21706;BME280;11014;53.076;18.208;2023-01-30T12:29:18;99629.78;;;7.46;75.10
21706;BME280;11014;53.076;18.208;2023-01-30T12:34:33;99632.97;;;7.71;74.25
21706;BME280;11014;53.076;18.208;2023-01-30T12:37:05;99621.75;;;7.57;74.52
21706;BME280;11014;53.076;18.208;2023-01-30T12:46:03;99627.34;;;8.36;71.73
21706;BME280;11014;53.076;18.208;2023-01-30T12:51:49;99643.41;;;8.36;71.38
21706;BME280;11014;53.076;18.208;2023-01-30T12:54:41;99629.78;;;8.25;71.32
21706;BME280;11014;53.076;18.208;2023-01-30T12:57:38;99624.25;;;8.15;71.26
21706;BME280;11014;53.076;18.208;2023-01-30T13:03:23;99615.16;;;7.88;70.97
21706;BME280;11014;53.076;18.208;2023-01-30T13:08:36;99597.72;;;7.46;71.55
21706;BME280;11014;53.076;18.208;2023-01-30T13:11:32;99608.63;;;7.56;72.40
21706;BME280;11014;53.076;18.208;2023-01-30T13:17:09;99607.63;;;7.85;70.99
21706;BME280;11014;53.076;18.208;2023-01-30T13:20:14;99611.66;;;7.25;71.85
21706;BME280;11014;53.076;18.208;2023-01-30T13:22:58;99600.75;;;7.26;72.13
21706;BME280;11014;53.076;18.208;2023-01-30T13:26:04;99607.75;;;7.15;72.76
21706;BME280;11014;53.076;18.208;2023-01-30T13:28:37;99609.69;;;6.74;72.90
21706;BME280;11014;53.076;18.208;2023-01-30T13:31:10;99609.59;;;7.27;73.22
21706;BME280;11014;53.076;18.208;2023-01-30T13:33:43;99608.72;;;7.61;72.01
21706;BME280;11014;53.076;18.208;2023-01-30T13:36:32;99607.31;;;7.70;71.44
21706;BME280;11014;53.076;18.208;2023-01-30T13:39:35;99593.25;;;7.63;70.68
21706;BME280;11014;53.076;18.208;2023-01-30T13:45:15;99598.41;;;7.53;70.40
21706;BME280;11014;53.076;18.208;2023-01-30T13:48:05;99607.03;;;7.95;70.68
21706;BME280;11014;53.076;18.208;2023-01-30T13:50:54;99610.66;;;7.77;69.78
21706;BME280;11014;53.076;18.208;2023-01-30T13:53:33;99617.31;;;7.63;69.98
21706;BME280;11014;53.076;18.208;2023-01-30T14:05:02;99619.31;;;7.33;72.79
21706;BME280;11014;53.076;18.208;2023-01-30T14:07:39;99633.28;;;7.35;72.61
21706;BME280;11014;53.076;18.208;2023-01-30T14:10:17;99628.75;;;7.24;72.75
21706;BME280;11014;53.076;18.208;2023-01-30T14:13:24;99616.09;;;7.07;73.42
21706;BME280;11014;53.076;18.208;2023-01-30T14:16:00;99612.91;;;6.64;73.86
21706;BME280;11014;53.076;18.208;2023-01-30T14:18:35;99624.31;;;6.83;73.93
21706;BME280;11014;53.076;18.208;2023-01-30T14:21:19;99624.41;;;6.76;74.16
21706;BME280;11014;53.076;18.208;2023-01-30T14:24:03;99624.09;;;6.84;74.15
21706;BME280;11014;53.076;18.208;2023-01-30T14:34:42;99629.06;;;6.10;75.27
21706;BME280;11014;53.076;18.208;2023-01-30T14:45:47;99626.97;;;6.30;75.98
21706;BME280;11014;53.076;18.208;2023-01-30T14:48:37;99627.19;;;6.28;76.11
21706;BME280;11014;53.076;18.208;2023-01-30T14:57:24;99628.09;;;5.92;77.79
21706;BME280;11014;53.076;18.208;2023-01-30T15:00:26;99616.03;;;6.20;77.31
21706;BME280;11014;53.076;18.208;2023-01-30T15:03:20;99620.88;;;5.75;78.00
21706;BME280;11014;53.076;18.208;2023-01-30T15:05:50;99626.19;;;6.11;78.04
21706;BME280;11014;53.076;18.208;2023-01-30T15:08:24;99627.50;;;6.20;77.90
21706;BME280;11014;53.076;18.208;2023-01-30T15:11:11;99625.16;;;6.42;77.12
21706;BME280;11014;53.076;18.208;2023-01-30T15:14:30;99633.31;;;6.29;77.68
21706;BME280;11014;53.076;18.208;2023-01-30T15:17:35;99619.97;;;6.17;77.43
21706;BME280;11014;53.076;18.208;2023-01-30T15:20:11;99645.81;;;6.17;77.26
21706;BME280;11014;53.076;18.208;2023-01-30T15:23:12;99621.31;;;6.38;77.14
21706;BME280;11014;53.076;18.208;2023-01-30T15:29:42;99612.22;;;6.27;77.01
21706;BME280;11014;53.076;18.208;2023-01-30T15:32:34;99610.06;;;6.06;76.92
21706;BME280;11014;53.076;18.208;2023-01-30T15:35:20;99621.75;;;6.05;76.91
21706;BME280;11014;53.076;18.208;2023-01-30T15:38:38;99621.13;;;5.91;77.38
21706;BME280;11014;53.076;18.208;2023-01-30T15:42:28;99632.66;;;6.04;76.72
21706;BME280;11014;53.076;18.208;2023-01-30T15:52:48;99639.31;;;5.40;77.55
21706;BME280;11014;53.076;18.208;2023-01-30T15:55:59;99627.91;;;5.69;78.38
21706;BME280;11014;53.076;18.208;2023-01-30T15:58:29;99655.88;;;5.60;78.86
21706;BME280;11014;53.076;18.208;2023-01-30T16:01:02;99654.13;;;5.72;78.27
21706;BME280;11014;53.076;18.208;2023-01-30T16:07:25;99677.19;;;5.60;78.52
21706;BME280;11014;53.076;18.208;2023-01-30T16:10:21;99681.34;;;5.56;78.61